This is the latest recevied weather packets stored in our database for station/object KF4KUL. If no packets are shown the sender has not sent any weather packets the latest 10 day(s).
| Time | Temp. | Humidity | Pressure | Rain* | Wind** | Luminosity | Snow |
|---|---|---|---|---|---|---|---|
| 1777575338 | 28.33° C | 64% | 1011.7 hPa | 0 mm | - | - | - |
| 1777574437 | 28.33° C | 63% | 1011.7 hPa | 0 mm | - | - | - |
| 1777573536 | 28.89° C | 63% | 1012 hPa | 0 mm | - | - | - |
| 1777572635 | 29.44° C | 62% | 1012.3 hPa | 0 mm | - | - | - |
| 1777571734 | 27.78° C | 66% | 1012.4 hPa | 0 mm | - | - | - |
| 1777570833 | 27.78° C | 67% | 1012.5 hPa | 0 mm | - | - | - |
| 1777569932 | 28.33° C | 64% | 1012.5 hPa | 0 mm | - | - | - |
| 1777569031 | 28.89° C | 63% | 1012.7 hPa | 0 mm | - | - | - |
| 1777568130 | 28.89° C | 63% | 1012.8 hPa | 0 mm | - | - | - |
| 1777567229 | 30° C | 60% | 1012.9 hPa | 0 mm | - | - | - |
| 1777566328 | 30° C | 60% | 1012.7 hPa | 0 mm | - | - | - |
| 1777565427 | 28.89° C | 64% | 1012.6 hPa | 0 mm | - | - | - |
| 1777564526 | 29.44° C | 64% | 1012.6 hPa | 0 mm | - | - | - |
| 1777563625 | 29.44° C | 60% | 1012.7 hPa | 0 mm | - | - | - |
| 1777562724 | 28.89° C | 63% | 1012.6 hPa | 0 mm | - | - | - |
| 1777561823 | 28.89° C | 62% | 1012.5 hPa | 0 mm | - | - | - |
| 1777560922 | 28.89° C | 63% | 1012.5 hPa | 0 mm | - | - | - |
| 1777560021 | 28.89° C | 63% | 1012.2 hPa | 0 mm | - | - | - |
| 1777559120 | 28.33° C | 63% | 1012 hPa | 0 mm | - | - | - |
| 1777558219 | 27.78° C | 66% | 1011.7 hPa | 0 mm | - | - | - |
| 1777557318 | 27.22° C | 69% | 1011.6 hPa | 0 mm | - | - | - |
| 1777556417 | 26.67° C | 71% | 1011.5 hPa | 0 mm | - | - | - |
| 1777555516 | 26.11° C | 72% | 1011.7 hPa | 0 mm | - | - | - |
| 1777554615 | 26.11° C | 73% | 1012 hPa | 0 mm | - | - | - |
| 1777553714 | 25° C | 76% | 1012.4 hPa | 0 mm | - | - | - |
* Rain latest hour (hover to see other rain measurements)
** Current wind speed in m/s (hover to see current wind gust speed)